createdAt,value
2018-02-16T00:01:01.203Z,2.60
2018-02-16T00:03:28.807Z,2.50
2018-02-16T00:05:56.539Z,2.60
2018-02-16T00:08:24.163Z,2.60
2018-02-16T00:10:51.759Z,2.60
2018-02-16T00:13:19.296Z,2.60
2018-02-16T00:15:47.607Z,2.70
2018-02-16T00:18:17.871Z,2.70
2018-02-16T00:20:45.455Z,2.60
2018-02-16T00:23:25.903Z,2.70
2018-02-16T00:29:01.435Z,2.70
2018-02-16T00:31:28.975Z,2.60
2018-02-16T00:33:56.517Z,2.60
2018-02-16T00:36:24.465Z,2.60
2018-02-16T00:38:52.003Z,2.70
2018-02-16T00:41:19.587Z,2.70
2018-02-16T00:43:47.159Z,2.70
2018-02-16T00:46:16.487Z,2.70
2018-02-16T00:48:44.019Z,2.70
2018-02-16T00:51:11.590Z,2.80
2018-02-16T00:53:39.179Z,2.80
2018-02-16T00:56:06.723Z,2.80
2018-02-16T00:58:34.511Z,2.80
2018-02-16T01:01:02.064Z,2.80
2018-02-16T01:03:29.603Z,2.80
2018-02-16T01:05:57.170Z,2.80
2018-02-16T01:08:24.716Z,2.90
2018-02-16T01:10:52.255Z,2.90
2018-02-16T01:13:19.823Z,3.00
2018-02-16T01:15:47.354Z,2.90
2018-02-16T01:18:16.321Z,2.90
2018-02-16T01:20:44.211Z,2.90
2018-02-16T01:23:11.742Z,2.90
2018-02-16T01:25:40.008Z,2.90
2018-02-16T01:28:07.574Z,2.90
2018-02-16T01:30:35.115Z,2.90
2018-02-16T01:33:02.655Z,3.00
2018-02-16T01:35:30.223Z,3.00
2018-02-16T01:37:58.537Z,2.90
2018-02-16T01:40:26.839Z,2.90
2018-02-16T01:42:55.015Z,2.90
2018-02-16T01:45:22.556Z,2.90
2018-02-16T01:47:50.095Z,2.90
2018-02-16T01:50:17.667Z,2.90
2018-02-16T01:52:45.202Z,3.00
2018-02-16T01:55:14.436Z,3.00
2018-02-16T01:57:42.007Z,3.00
2018-02-16T02:00:09.549Z,3.00
2018-02-16T02:02:37.095Z,3.00
2018-02-16T02:05:05.510Z,2.90
2018-02-16T02:07:33.051Z,2.90
2018-02-16T02:10:00.599Z,2.90
2018-02-16T02:12:28.172Z,2.80
2018-02-16T02:14:55.711Z,2.90
2018-02-16T02:17:23.247Z,2.90
2018-02-16T02:19:50.811Z,3.00
2018-02-16T02:22:19.120Z,2.90
2018-02-16T02:24:46.666Z,2.90
2018-02-16T02:27:25.851Z,2.90
2018-02-16T02:32:33.741Z,2.80
2018-02-16T02:35:01.278Z,2.80
2018-02-16T02:37:28.839Z,2.70
2018-02-16T02:39:56.436Z,2.70
2018-02-16T02:42:23.982Z,2.80
2018-02-16T02:44:51.552Z,2.80
2018-02-16T02:47:19.647Z,2.80
2018-02-16T02:49:47.187Z,2.80
2018-02-16T02:52:16.426Z,2.90
2018-02-16T02:54:44.755Z,2.90
2018-02-16T02:57:12.301Z,2.80
2018-02-16T02:59:39.841Z,2.90
2018-02-16T03:02:07.420Z,2.90
2018-02-16T03:04:35.720Z,2.90
2018-02-16T03:07:03.261Z,2.90
2018-02-16T03:09:31.043Z,3.00
2018-02-16T03:11:58.586Z,3.00
2018-02-16T03:14:26.136Z,2.90
2018-02-16T03:16:53.710Z,3.00
2018-02-16T03:19:21.251Z,3.00
2018-02-16T03:21:48.806Z,3.00
2018-02-16T03:24:16.571Z,3.00
2018-02-16T03:26:44.131Z,3.00
2018-02-16T03:29:12.207Z,3.00
2018-02-16T03:31:40.274Z,3.00
2018-02-16T03:34:07.810Z,3.00
2018-02-16T03:36:35.347Z,3.00
2018-02-16T03:39:02.923Z,2.90
2018-02-16T03:41:30.493Z,2.90
2018-02-16T03:43:58.808Z,2.90
2018-02-16T03:46:26.368Z,2.90
2018-02-16T03:48:53.907Z,2.80
2018-02-16T03:51:21.474Z,2.80
2018-02-16T03:53:49.591Z,2.80
2018-02-16T03:56:17.126Z,2.80
2018-02-16T03:58:44.666Z,2.70
2018-02-16T04:01:12.235Z,2.60
2018-02-16T04:03:39.772Z,2.60
2018-02-16T04:06:08.071Z,2.60
2018-02-16T04:08:35.643Z,2.60
2018-02-16T04:11:03.187Z,2.70
2018-02-16T04:13:30.733Z,2.70
2018-02-16T04:15:58.602Z,2.70
2018-02-16T04:18:26.906Z,2.60
2018-02-16T04:20:54.447Z,2.60
2018-02-16T04:23:22.011Z,2.60
2018-02-16T04:25:49.547Z,2.60
2018-02-16T04:28:17.086Z,2.70
2018-02-16T04:30:45.044Z,2.70
2018-02-16T04:33:14.705Z,2.70
2018-02-16T04:35:42.250Z,2.70
2018-02-16T04:38:10.904Z,2.70
2018-02-16T04:40:38.442Z,2.70
2018-02-16T04:43:05.993Z,2.70
2018-02-16T04:45:33.563Z,2.80
2018-02-16T04:48:01.103Z,2.80
2018-02-16T04:50:28.647Z,2.80
2018-02-16T04:52:56.207Z,2.80
2018-02-16T04:55:23.750Z,2.70
2018-02-16T04:57:51.287Z,2.70
2018-02-16T05:00:19.550Z,2.70
2018-02-16T05:02:47.107Z,2.80
2018-02-16T05:05:15.551Z,2.80
2018-02-16T05:07:43.112Z,2.80
2018-02-16T05:10:10.652Z,2.80
2018-02-16T05:12:38.960Z,2.90
2018-02-16T05:15:06.531Z,2.90
2018-02-16T05:17:34.071Z,2.90
2018-02-16T05:20:01.611Z,2.90
2018-02-16T05:22:29.399Z,2.90
2018-02-16T05:24:56.931Z,2.90
2018-02-16T05:27:25.240Z,2.90
2018-02-16T05:29:52.807Z,2.90
2018-02-16T05:32:20.867Z,2.90
2018-02-16T05:34:48.406Z,2.80
2018-02-16T05:37:16.633Z,2.80
2018-02-16T05:39:44.177Z,2.70
2018-02-16T05:42:11.718Z,2.70
2018-02-16T05:44:39.952Z,2.70
2018-02-16T05:47:08.280Z,2.80
2018-02-16T05:49:35.823Z,2.70
2018-02-16T05:52:03.386Z,2.80
2018-02-16T05:54:30.923Z,2.80
2018-02-16T05:56:59.232Z,3.00
2018-02-16T05:59:26.802Z,2.90
2018-02-16T06:01:54.357Z,3.00
2018-02-16T06:04:21.918Z,3.00
2018-02-16T06:06:49.698Z,3.00
2018-02-16T06:09:17.241Z,3.00
2018-02-16T06:11:45.583Z,3.10
2018-02-16T06:14:25.947Z,3.10
2018-02-16T06:19:08.505Z,3.10
2018-02-16T06:21:36.153Z,3.20
2018-02-16T06:24:03.683Z,3.20
2018-02-16T06:26:31.243Z,3.20
2018-02-16T06:28:59.611Z,3.20
2018-02-16T06:31:27.183Z,3.20
2018-02-16T06:33:55.643Z,3.30
2018-02-16T06:36:23.211Z,3.30
2018-02-16T06:38:51.652Z,3.40
2018-02-16T06:41:19.309Z,3.30
2018-02-16T06:43:47.027Z,3.30
2018-02-16T06:46:15.525Z,3.30
2018-02-16T06:48:43.084Z,3.40
2018-02-16T06:51:12.083Z,3.40
2018-02-16T06:53:39.703Z,3.40
2018-02-16T06:56:07.248Z,3.40
2018-02-16T06:58:35.106Z,3.40
2018-02-16T07:01:02.729Z,3.40
2018-02-16T07:03:30.786Z,3.50
2018-02-16T07:05:58.354Z,3.50
2018-02-16T07:08:26.651Z,3.60
2018-02-16T07:10:54.192Z,3.60
2018-02-16T07:13:22.742Z,3.70
2018-02-16T07:15:50.275Z,3.70
2018-02-16T07:18:18.650Z,3.70
2018-02-16T07:20:46.224Z,3.70
2018-02-16T07:23:16.433Z,3.60
2018-02-16T07:25:43.988Z,3.60
2018-02-16T07:28:11.567Z,3.50
2018-02-16T07:30:39.096Z,3.60
2018-02-16T07:33:06.638Z,3.60
2018-02-16T07:35:34.871Z,3.60
2018-02-16T07:38:02.401Z,3.60
2018-02-16T07:40:29.975Z,3.70
2018-02-16T07:42:57.548Z,3.70
2018-02-16T07:45:25.129Z,3.80
2018-02-16T07:47:52.718Z,3.80
2018-02-16T07:50:20.321Z,3.90
2018-02-16T07:52:47.943Z,4.00
2018-02-16T07:55:16.352Z,4.20
2018-02-16T07:57:44.228Z,4.20
2018-02-16T08:00:11.759Z,4.20
2018-02-16T08:02:39.296Z,4.10
2018-02-16T08:05:07.692Z,4.30
2018-02-16T08:07:35.239Z,4.30
2018-02-16T08:10:03.547Z,4.40
2018-02-16T08:12:31.127Z,4.40
2018-02-16T08:14:58.715Z,4.40
2018-02-16T08:17:26.308Z,4.40
2018-02-16T08:19:55.249Z,4.50
2018-02-16T08:22:22.783Z,4.50
2018-02-16T08:24:50.329Z,4.40
2018-02-16T08:27:17.900Z,4.50
2018-02-16T08:29:45.531Z,4.60
2018-02-16T08:32:23.678Z,4.60
2018-02-16T08:39:37.130Z,4.50
2018-02-16T08:42:04.687Z,4.50
2018-02-16T08:44:32.500Z,4.50
2018-02-16T08:47:00.146Z,4.50
2018-02-16T08:49:27.682Z,4.60
2018-02-16T08:51:55.279Z,4.70
2018-02-16T08:54:22.859Z,4.70
2018-02-16T08:56:50.526Z,4.70
2018-02-16T08:59:18.835Z,4.90
2018-02-16T09:01:47.190Z,4.90
2018-02-16T09:04:16.531Z,4.90
2018-02-16T09:06:44.894Z,5.00
2018-02-16T09:09:12.466Z,5.00
2018-02-16T09:11:39.995Z,5.00
2018-02-16T09:14:07.568Z,5.10
2018-02-16T09:16:35.131Z,4.90
2018-02-16T09:19:02.675Z,4.90
2018-02-16T09:21:31.502Z,5.00
2018-02-16T09:23:59.382Z,5.00
2018-02-16T09:26:26.916Z,5.10
2018-02-16T09:28:54.450Z,5.20
2018-02-16T09:31:22.089Z,5.30
2018-02-16T09:33:49.696Z,5.20
2018-02-16T09:36:17.504Z,5.10
2018-02-16T09:38:46.559Z,5.00
2018-02-16T09:41:16.746Z,5.00
2018-02-16T09:43:45.047Z,5.10
2018-02-16T09:46:14.091Z,5.10
2018-02-16T09:48:41.624Z,5.00
2018-02-16T09:51:09.159Z,5.10
2018-02-16T09:53:36.718Z,5.20
2018-02-16T09:56:04.254Z,5.20
2018-02-16T09:58:32.738Z,5.20
2018-02-16T10:01:01.227Z,5.40
2018-02-16T10:03:28.830Z,5.40
2018-02-16T10:05:56.413Z,5.50
2018-02-16T10:08:24.290Z,5.50
2018-02-16T10:10:51.830Z,5.50
2018-02-16T10:13:19.365Z,5.70
2018-02-16T10:15:46.929Z,5.80
2018-02-16T10:18:15.469Z,5.90
2018-02-16T10:20:45.108Z,5.90
2018-02-16T10:23:13.007Z,5.90
2018-02-16T10:25:40.636Z,5.90
2018-02-16T10:28:08.520Z,5.90
2018-02-16T10:30:36.158Z,5.90
2018-02-16T10:33:03.698Z,5.90
2018-02-16T10:35:31.230Z,6.00
2018-02-16T10:37:58.806Z,6.00
2018-02-16T10:40:26.350Z,6.00
2018-02-16T10:42:54.142Z,5.90
2018-02-16T10:45:21.711Z,6.10
2018-02-16T10:47:50.019Z,6.10
2018-02-16T10:50:17.600Z,6.00
2018-02-16T10:52:45.457Z,6.20
2018-02-16T10:55:15.500Z,6.50
2018-02-16T10:57:43.030Z,6.40
2018-02-16T11:00:10.590Z,6.50
2018-02-16T11:05:47.123Z,6.70
2018-02-16T11:08:22.059Z,6.70
2018-02-16T11:10:50.303Z,6.80
2018-02-16T11:13:18.438Z,6.90
2018-02-16T11:15:45.962Z,7.00
2018-02-16T11:18:15.350Z,7.00
2018-02-16T11:20:44.139Z,7.00
2018-02-16T11:23:11.679Z,6.90
2018-02-16T11:25:39.414Z,6.80
2018-02-16T11:28:08.056Z,6.80
2018-02-16T11:30:36.515Z,6.70
2018-02-16T11:33:04.518Z,6.70
2018-02-16T11:35:32.095Z,6.60
2018-02-16T11:38:00.391Z,6.50
2018-02-16T11:40:27.971Z,6.60
2018-02-16T11:42:55.802Z,6.50
2018-02-16T11:45:23.370Z,6.50
2018-02-16T11:47:51.684Z,6.30
2018-02-16T11:50:19.991Z,6.30
2018-02-16T11:52:47.523Z,6.30
2018-02-16T11:55:17.703Z,6.40
2018-02-16T11:57:45.248Z,6.40
2018-02-16T12:00:14.471Z,6.40
2018-02-16T12:02:42.557Z,6.50
2018-02-16T12:05:10.918Z,6.50
2018-02-16T12:07:38.451Z,6.50
2018-02-16T12:10:06.095Z,6.50
2018-02-16T12:12:33.651Z,6.60
2018-02-16T12:15:02.649Z,6.50
2018-02-16T12:17:30.976Z,6.40
2018-02-16T12:19:58.958Z,6.50
2018-02-16T12:22:26.507Z,6.50
2018-02-16T12:24:54.067Z,6.30
2018-02-16T12:27:21.625Z,6.30
2018-02-16T12:29:49.188Z,6.20
2018-02-16T12:32:16.780Z,6.20
2018-02-16T12:34:44.347Z,6.10
2018-02-16T12:37:11.923Z,6.10
2018-02-16T12:39:40.417Z,6.10
2018-02-16T12:42:08.741Z,6.00
2018-02-16T12:44:37.016Z,6.00
2018-02-16T12:47:05.368Z,5.90
2018-02-16T12:49:37.164Z,5.90
2018-02-16T12:52:04.747Z,5.90
2018-02-16T12:54:33.865Z,6.10
2018-02-16T12:57:02.272Z,6.20
2018-02-16T12:59:30.747Z,6.20
2018-02-16T13:01:59.282Z,6.10
2018-02-16T13:04:26.853Z,6.10
2018-02-16T13:06:54.976Z,6.20
2018-02-16T13:09:42.255Z,6.20
2018-02-16T13:12:09.812Z,6.10
2018-02-16T13:14:39.342Z,6.10
2018-02-16T13:17:07.109Z,6.00
2018-02-16T13:19:34.659Z,5.90
2018-02-16T13:22:02.202Z,5.80
2018-02-16T13:24:29.777Z,5.80
2018-02-16T13:26:57.328Z,5.80
2018-02-16T13:29:24.941Z,5.80
2018-02-16T15:41:46.136Z,5.00
2018-02-16T15:44:25.779Z,5.00
2018-02-16T15:52:29.187Z,4.90
2018-02-16T15:54:56.759Z,4.80
2018-02-16T15:57:24.317Z,4.80
2018-02-16T15:59:52.145Z,4.70
2018-02-16T16:02:20.468Z,4.70
2018-02-16T16:04:48.023Z,4.70
2018-02-16T16:07:17.256Z,4.70
2018-02-16T16:09:44.806Z,4.70
2018-02-16T16:12:12.366Z,4.80
2018-02-16T16:14:39.977Z,4.80
2018-02-16T16:17:07.536Z,4.90
2018-02-16T16:19:35.091Z,4.80
2018-02-16T16:22:03.056Z,4.70
2018-02-16T16:24:30.607Z,4.70
2018-02-16T16:26:58.159Z,4.70
2018-02-16T16:29:25.752Z,4.70
2018-02-16T16:31:53.310Z,4.70
2018-02-16T16:34:20.886Z,4.70
2018-02-16T16:36:48.478Z,4.70
2018-02-16T16:39:16.468Z,4.60
2018-02-16T16:41:44.023Z,4.70
2018-02-16T16:44:12.200Z,4.60
2018-02-16T16:46:39.735Z,4.60
2018-02-16T16:49:07.294Z,4.60
2018-02-16T16:51:34.857Z,4.70
2018-02-16T16:54:02.395Z,4.60
2018-02-16T16:56:29.939Z,4.50
2018-02-16T16:58:57.502Z,4.50
2018-02-16T17:01:25.041Z,4.50
2018-02-16T17:03:53.359Z,4.50
2018-02-16T17:06:21.442Z,4.50
2018-02-16T17:08:48.979Z,4.50
2018-02-16T17:11:16.566Z,4.40
2018-02-16T17:13:44.822Z,4.30
2018-02-16T17:16:12.492Z,4.30
2018-02-16T17:18:40.792Z,4.30
2018-02-16T17:21:08.381Z,4.30
2018-02-16T17:23:35.928Z,4.30
2018-02-16T17:26:03.484Z,4.30
2018-02-16T17:28:31.670Z,4.20
2018-02-16T17:30:59.211Z,4.10
2018-02-16T17:33:26.772Z,4.20
2018-02-16T17:35:54.335Z,4.10
2018-02-16T17:38:21.875Z,4.20
2018-02-16T17:40:49.429Z,4.10
2018-02-16T17:43:19.012Z,4.10
2018-02-16T17:45:47.238Z,4.20
2018-02-16T17:48:17.107Z,4.10
2018-02-16T17:50:45.937Z,4.20
2018-02-16T17:53:15.539Z,4.20
2018-02-16T17:55:43.923Z,4.20
2018-02-16T17:58:11.524Z,4.20
2018-02-16T18:00:39.799Z,4.00
2018-02-16T18:03:07.396Z,3.90
2018-02-16T18:05:57.352Z,3.90
2018-02-16T18:08:24.907Z,3.90
2018-02-16T18:10:52.478Z,3.80
2018-02-16T18:13:20.060Z,3.80
2018-02-16T18:15:48.425Z,3.80
2018-02-16T18:18:16.443Z,3.80
2018-02-16T18:20:44.816Z,3.90
2018-02-16T18:23:14.047Z,3.90
2018-02-16T18:25:41.583Z,3.90
2018-02-16T18:28:09.679Z,3.90
2018-02-16T18:30:37.279Z,3.90
2018-02-16T18:33:04.820Z,3.90
2018-02-16T18:35:32.394Z,3.90
2018-02-16T18:38:00.714Z,3.80
2018-02-16T18:40:28.255Z,3.80
2018-02-16T18:42:55.824Z,3.80
2018-02-16T18:45:23.380Z,3.70
2018-02-16T18:47:51.747Z,3.70
2018-02-16T18:50:20.007Z,3.70
2018-02-16T18:52:47.555Z,3.70
2018-02-16T18:55:16.563Z,3.80
2018-02-16T18:57:44.147Z,3.70
2018-02-16T19:00:11.690Z,3.60
2018-02-16T19:02:39.822Z,3.60
2018-02-16T19:05:08.764Z,3.50
2018-02-16T19:07:36.371Z,3.50
2018-02-16T19:10:04.685Z,3.50
2018-02-16T19:12:35.913Z,3.40
2018-02-16T19:15:03.476Z,3.40
2018-02-16T19:17:31.026Z,3.30
2018-02-16T19:19:58.601Z,3.30
2018-02-16T19:22:26.147Z,3.20
2018-02-16T19:24:53.854Z,3.30
2018-02-16T19:27:21.471Z,3.30
2018-02-16T19:29:49.252Z,3.30
2018-02-16T19:32:16.836Z,3.30
2018-02-16T19:34:45.239Z,3.20
2018-02-16T19:37:14.036Z,3.10
2018-02-16T19:39:42.038Z,3.20
2018-02-16T19:42:10.065Z,3.20
2018-02-16T19:44:38.408Z,3.20
2018-02-16T19:47:06.020Z,3.10
2018-02-16T19:49:34.280Z,3.10
2018-02-16T19:52:01.917Z,3.20
2018-02-16T19:54:31.386Z,3.10
2018-02-16T19:56:59.083Z,3.10
2018-02-16T19:59:26.984Z,3.00
2018-02-16T20:01:56.784Z,3.00
2018-02-16T20:04:24.474Z,2.90
2018-02-16T20:06:52.151Z,2.90
2018-02-16T20:09:20.080Z,2.90
2018-02-16T20:11:48.345Z,2.90
2018-02-16T20:14:17.257Z,2.90
2018-02-16T20:16:45.975Z,2.90
2018-02-16T20:19:24.919Z,3.00
2018-02-16T20:24:24.933Z,2.90
2018-02-16T20:26:52.982Z,2.90
2018-02-16T20:29:21.616Z,2.90
2018-02-16T20:31:49.592Z,3.00
2018-02-16T20:34:17.599Z,3.00
2018-02-16T20:36:45.446Z,3.00
2018-02-16T20:39:21.741Z,3.00
2018-02-16T20:41:49.390Z,3.00
2018-02-16T20:44:27.073Z,3.00
2018-02-16T20:46:54.689Z,3.00
2018-02-16T20:49:22.396Z,3.10
2018-02-16T20:51:50.695Z,3.00
2018-02-16T20:54:18.302Z,3.10
2018-02-16T20:56:46.048Z,3.00
2018-02-16T20:59:23.700Z,3.00
2018-02-16T21:10:31.395Z,3.00
2018-02-16T21:12:59.865Z,2.70
2018-02-16T21:15:27.521Z,2.70
2018-02-16T21:17:55.940Z,2.80
2018-02-16T21:20:24.380Z,2.70
2018-02-16T21:22:52.211Z,2.70
2018-02-16T21:25:19.816Z,2.70
2018-02-16T21:27:47.390Z,2.70
2018-02-16T21:30:17.388Z,2.60
2018-02-16T21:32:45.067Z,2.60
2018-02-16T21:35:14.492Z,2.60
2018-02-16T21:37:42.174Z,2.60
2018-02-16T21:40:10.407Z,2.60
2018-02-16T21:42:38.011Z,2.50
2018-02-16T21:45:05.664Z,2.50
2018-02-16T21:47:34.004Z,2.40
2018-02-16T21:50:02.114Z,2.40
2018-02-16T21:52:31.588Z,2.30
2018-02-16T21:54:59.195Z,2.30
2018-02-16T21:57:27.763Z,2.20
2018-02-16T21:59:55.412Z,2.20
2018-02-16T22:02:23.091Z,2.10
2018-02-16T22:04:50.667Z,2.10
2018-02-16T22:07:18.303Z,2.20
2018-02-16T22:09:45.935Z,2.30
2018-02-16T22:12:14.604Z,2.30
2018-02-16T22:14:42.217Z,2.30
2018-02-16T22:17:09.828Z,2.30
2018-02-16T22:19:38.390Z,2.20
2018-02-16T22:22:07.174Z,2.20
2018-02-16T22:24:34.870Z,2.20
2018-02-16T22:27:03.285Z,2.20
2018-02-16T22:29:31.842Z,2.20
2018-02-16T22:32:00.533Z,2.10
2018-02-16T22:34:29.126Z,2.20
2018-02-16T22:36:57.150Z,2.20
2018-02-16T22:39:24.757Z,2.20
2018-02-16T22:41:52.335Z,2.20
2018-02-16T22:44:20.471Z,2.10
2018-02-16T22:46:49.100Z,2.10
2018-02-16T22:49:17.387Z,2.10
2018-02-16T22:51:45.691Z,2.10
2018-02-16T22:54:25.856Z,2.10
2018-02-16T23:01:00.420Z,2.00
2018-02-16T23:03:27.953Z,2.00
2018-02-16T23:05:56.236Z,2.00
2018-02-16T23:08:25.135Z,2.00
2018-02-16T23:10:52.779Z,2.00
2018-02-16T23:13:20.332Z,1.90
2018-02-16T23:15:47.899Z,1.90
2018-02-16T23:18:16.359Z,1.90
2018-02-16T23:20:43.907Z,1.90
2018-02-16T23:23:12.255Z,1.90
2018-02-16T23:25:39.800Z,1.90
2018-02-16T23:28:07.343Z,1.90
2018-02-16T23:30:35.551Z,1.90
2018-02-16T23:33:03.089Z,2.00
2018-02-16T23:35:30.643Z,2.00
2018-02-16T23:37:58.210Z,2.10
2018-02-16T23:40:25.754Z,2.20
2018-02-16T23:42:53.501Z,2.20
2018-02-16T23:45:22.121Z,2.30
2018-02-16T23:47:50.151Z,2.30
2018-02-16T23:50:17.802Z,2.30
2018-02-16T23:52:45.723Z,2.40
2018-02-16T23:55:23.764Z,2.30
